createdAt,value
2023-04-18T00:00:28.307Z,8.08
2023-04-18T00:01:28.969Z,8.08
2023-04-18T00:02:29.800Z,8.06
2023-04-18T00:03:30.520Z,8.10
2023-04-18T00:04:30.288Z,8.08
2023-04-18T00:05:30.430Z,8.05
2023-04-18T00:06:31.074Z,8.08
2023-04-18T00:07:31.749Z,8.08
2023-04-18T00:08:32.428Z,8.10
2023-04-18T00:09:33.091Z,8.09
2023-04-18T00:10:33.758Z,8.12
2023-04-18T00:11:34.419Z,8.13
2023-04-18T00:12:35.069Z,8.13
2023-04-18T00:13:35.704Z,8.06
2023-04-18T00:14:36.320Z,8.06
2023-04-18T00:15:36.947Z,8.13
2023-04-18T00:16:37.614Z,8.13
2023-04-18T00:17:37.815Z,8.12
2023-04-18T00:18:38.473Z,8.12
2023-04-18T00:19:39.126Z,8.09
2023-04-18T00:20:39.757Z,8.15
2023-04-18T00:21:40.401Z,8.16
2023-04-18T00:22:41.026Z,8.13
2023-04-18T00:23:41.689Z,8.15
2023-04-18T00:24:42.359Z,8.15
2023-04-18T00:25:43.019Z,8.13
2023-04-18T00:26:43.646Z,8.12
2023-04-18T00:27:44.269Z,8.09
2023-04-18T00:28:44.917Z,8.09
2023-04-18T00:29:45.568Z,8.09
2023-04-18T00:30:46.301Z,8.12
2023-04-18T00:31:46.377Z,8.13
2023-04-18T00:32:47.066Z,8.15
2023-04-18T00:33:47.711Z,8.16
2023-04-18T00:34:48.343Z,8.05
2023-04-18T00:35:49.005Z,7.97
2023-04-18T00:36:49.640Z,7.98
2023-04-18T00:37:50.278Z,7.95
2023-04-18T00:38:50.917Z,7.93
2023-04-18T00:39:51.555Z,7.93
2023-04-18T00:40:52.194Z,7.91
2023-04-18T00:41:52.831Z,8.00
2023-04-18T00:42:53.496Z,7.85
2023-04-18T00:43:54.151Z,7.94
2023-04-18T00:44:54.793Z,7.93
2023-04-18T00:45:55.455Z,7.94
2023-04-18T00:46:56.100Z,7.93
2023-04-18T00:47:56.832Z,7.95
2023-04-18T00:48:56.913Z,8.05
2023-04-18T00:49:57.579Z,7.98
2023-04-18T00:50:58.207Z,8.00
2023-04-18T00:51:58.820Z,8.05
2023-04-18T00:52:59.429Z,8.05
2023-04-18T00:54:00.052Z,7.97
2023-04-18T00:55:00.711Z,8.03
2023-04-18T00:56:01.368Z,8.09
2023-04-18T00:57:02.072Z,8.09
2023-04-18T00:58:02.187Z,8.06
2023-04-18T00:59:02.874Z,8.09
2023-04-18T01:00:03.539Z,8.06
2023-04-18T01:01:04.226Z,8.00
2023-04-18T01:02:05.213Z,8.05
2023-04-18T01:03:05.509Z,8.03
2023-04-18T01:04:05.746Z,8.00
2023-04-18T01:05:05.837Z,8.00
2023-04-18T01:06:06.470Z,8.01
2023-04-18T01:07:07.133Z,7.97
2023-04-18T01:08:07.786Z,7.98
2023-04-18T01:09:08.416Z,7.98
2023-04-18T01:10:09.041Z,7.95
2023-04-18T01:11:09.686Z,7.94
2023-04-18T01:12:10.343Z,8.00
2023-04-18T01:13:10.971Z,7.97
2023-04-18T01:14:11.827Z,7.90
2023-04-18T01:15:12.059Z,7.93
2023-04-18T01:16:12.728Z,7.88
2023-04-18T01:17:13.509Z,7.77
2023-04-18T01:21:45.815Z,7.80
2023-04-18T01:22:46.986Z,7.90
2023-04-18T01:23:47.531Z,7.82
2023-04-18T01:24:48.089Z,7.82
2023-04-18T01:25:48.663Z,7.82
2023-04-18T01:26:49.227Z,7.79
2023-04-18T01:27:49.771Z,7.87
2023-04-18T01:28:50.334Z,7.79
2023-04-18T01:29:50.901Z,7.83
2023-04-18T01:30:51.514Z,7.91
2023-04-18T01:31:51.579Z,7.94
2023-04-18T01:32:52.176Z,7.93
2023-04-18T01:33:52.742Z,7.91
2023-04-18T01:34:53.313Z,7.80
2023-04-18T01:35:53.878Z,7.90
2023-04-18T01:36:54.442Z,7.93
2023-04-18T01:37:55.011Z,7.93
2023-04-18T01:38:55.602Z,7.75
2023-04-18T01:39:57.162Z,7.91
2023-04-18T01:40:56.563Z,7.79
2023-04-18T01:41:57.129Z,7.85
2023-04-18T01:42:57.697Z,7.93
2023-04-18T01:43:58.267Z,7.82
2023-04-18T01:44:58.826Z,7.83
2023-04-18T01:45:59.413Z,7.87
2023-04-18T01:47:00.070Z,7.79
2023-04-18T01:48:00.169Z,7.85
2023-04-18T01:49:00.227Z,7.77
2023-04-18T01:50:00.843Z,7.79
2023-04-18T01:51:01.425Z,7.79
2023-04-18T01:52:02.032Z,7.72
2023-04-18T01:53:02.639Z,7.76
2023-04-18T01:54:03.217Z,7.70
2023-04-18T01:55:03.826Z,7.70
2023-04-18T01:56:04.413Z,7.69
2023-04-18T01:57:05.003Z,7.69
2023-04-18T01:58:05.589Z,7.76
2023-04-18T01:59:06.151Z,7.76
2023-04-18T02:00:06.750Z,7.76
2023-04-18T02:01:07.434Z,7.83
2023-04-18T02:02:07.502Z,7.80
2023-04-18T02:03:07.679Z,7.87
2023-04-18T02:04:07.908Z,7.77
2023-04-18T02:05:08.057Z,7.83
2023-04-18T02:06:08.620Z,7.77
2023-04-18T02:07:09.206Z,7.76
2023-04-18T02:08:09.791Z,7.72
2023-04-18T02:09:10.359Z,7.77
2023-04-18T02:10:10.946Z,7.75
2023-04-18T02:11:11.554Z,7.70
2023-04-18T02:12:12.128Z,7.80
2023-04-18T02:13:12.717Z,7.77
2023-04-18T02:14:13.473Z,7.82
2023-04-18T02:15:13.577Z,7.87
2023-04-18T02:16:14.241Z,7.77
2023-04-18T02:17:14.330Z,7.85
2023-04-18T02:18:14.891Z,7.72
2023-04-18T02:19:15.442Z,7.80
2023-04-18T02:20:16.020Z,7.76
2023-04-18T02:21:16.585Z,7.76
2023-04-18T02:22:17.153Z,7.69
2023-04-18T02:23:17.706Z,7.82
2023-04-18T02:24:18.247Z,7.75
2023-04-18T02:25:18.799Z,7.83
2023-04-18T02:26:19.357Z,7.79
2023-04-18T02:27:19.924Z,7.76
2023-04-18T02:28:20.486Z,7.79
2023-04-18T02:29:21.057Z,7.75
2023-04-18T02:30:21.627Z,7.88
2023-04-18T02:31:22.232Z,7.79
2023-04-18T02:32:22.897Z,7.76
2023-04-18T02:33:22.898Z,7.88
2023-04-18T02:34:23.470Z,7.87
2023-04-18T02:35:24.046Z,7.83
2023-04-18T02:36:24.673Z,7.87
2023-04-18T02:37:25.256Z,7.83
2023-04-18T02:38:25.824Z,7.88
2023-04-18T02:39:26.407Z,7.91
2023-04-18T02:40:26.975Z,7.77
2023-04-18T02:41:27.532Z,7.88
2023-04-18T02:42:28.077Z,7.82
2023-04-18T02:43:28.642Z,7.88
2023-04-18T02:44:29.214Z,7.91
2023-04-18T02:45:29.778Z,7.94
2023-04-18T02:46:30.396Z,7.90
2023-04-18T02:47:33.372Z,7.93
2023-04-18T02:48:30.696Z,7.87
2023-04-18T02:49:31.275Z,7.91
2023-04-18T02:50:31.833Z,7.94
2023-04-18T02:51:32.406Z,7.85
2023-04-18T02:52:32.956Z,7.97
2023-04-18T02:53:33.522Z,7.95
2023-04-18T02:54:34.093Z,7.93
2023-04-18T02:55:34.639Z,7.83
2023-04-18T02:56:35.230Z,7.82
2023-04-18T02:57:35.821Z,7.76
2023-04-18T02:58:36.376Z,7.87
2023-04-18T02:59:36.934Z,7.87
2023-04-18T03:00:37.500Z,7.80
2023-04-18T03:01:38.153Z,7.83
2023-04-18T03:02:38.203Z,7.90
2023-04-18T03:03:38.261Z,7.80
2023-04-18T03:04:38.882Z,7.79
2023-04-18T03:05:38.881Z,7.83
2023-04-18T03:06:39.414Z,7.88
2023-04-18T03:07:39.975Z,7.88
2023-04-18T03:08:40.521Z,7.80
2023-04-18T03:09:41.088Z,7.79
2023-04-18T03:10:41.658Z,7.83
2023-04-18T03:11:42.220Z,7.93
2023-04-18T03:12:42.783Z,7.87
2023-04-18T03:13:43.334Z,7.91
2023-04-18T03:14:43.871Z,7.90
2023-04-18T03:15:44.446Z,7.88
2023-04-18T03:16:45.043Z,7.90
2023-04-18T03:17:45.617Z,7.85
2023-04-18T03:18:46.166Z,7.91
2023-04-18T03:19:46.722Z,7.77
2023-04-18T03:20:47.301Z,7.93
2023-04-18T03:21:47.870Z,7.88
2023-04-18T03:22:48.417Z,7.95
2023-04-18T03:23:48.994Z,7.82
2023-04-18T03:24:49.573Z,7.94
2023-04-18T03:25:50.134Z,7.98
2023-04-18T03:26:50.695Z,7.88
2023-04-18T03:27:51.234Z,7.90
2023-04-18T03:28:51.830Z,7.90
2023-04-18T03:29:52.391Z,7.88
2023-04-18T03:30:52.951Z,7.93
2023-04-18T03:31:53.524Z,7.90
2023-04-18T03:32:54.122Z,7.88
2023-04-18T03:33:54.712Z,7.87
2023-04-18T03:34:55.273Z,7.93
2023-04-18T03:35:55.808Z,7.87
2023-04-18T03:36:56.359Z,7.90
2023-04-18T03:37:56.914Z,7.93
2023-04-18T03:38:57.463Z,7.91
2023-04-18T03:39:58.036Z,7.95
2023-04-18T03:40:58.605Z,7.87
2023-04-18T03:41:59.163Z,7.94
2023-04-18T03:42:59.748Z,7.79
2023-04-18T03:44:00.302Z,7.88
2023-04-18T03:45:00.867Z,7.83
2023-04-18T03:46:01.446Z,7.93
2023-04-18T03:47:02.029Z,7.93
2023-04-18T03:48:02.612Z,7.93
2023-04-18T03:49:03.186Z,8.06
2023-04-18T03:50:03.748Z,7.95
2023-04-18T03:51:04.316Z,7.97
2023-04-18T03:52:04.883Z,8.00
2023-04-18T03:53:05.435Z,7.97
2023-04-18T03:54:05.998Z,7.95
2023-04-18T03:55:06.567Z,7.98
2023-04-18T03:56:07.149Z,7.95
2023-04-18T03:57:07.773Z,7.90
2023-04-18T03:58:08.352Z,7.82
2023-04-18T03:59:08.955Z,7.94
2023-04-18T04:00:09.547Z,7.85
2023-04-18T04:01:10.115Z,7.87
2023-04-18T04:02:10.693Z,7.90
2023-04-18T04:03:10.829Z,7.85
2023-04-18T04:04:11.145Z,7.90
2023-04-18T04:05:11.284Z,7.83
2023-04-18T04:06:11.281Z,7.88
2023-04-18T04:07:11.854Z,7.90
2023-04-18T04:08:12.413Z,7.93
2023-04-18T04:09:12.960Z,7.91
2023-04-18T04:10:13.521Z,7.87
2023-04-18T04:11:14.082Z,7.85
2023-04-18T04:12:14.639Z,7.85
2023-04-18T04:13:15.189Z,7.88
2023-04-18T04:14:15.964Z,7.88
2023-04-18T04:15:16.146Z,7.90
2023-04-18T04:16:16.733Z,7.94
2023-04-18T04:17:16.757Z,7.97
2023-04-18T04:18:17.308Z,7.85
2023-04-18T04:19:17.856Z,7.93
2023-04-18T04:20:18.401Z,7.93
2023-04-18T04:21:21.057Z,7.90
2023-04-18T04:22:19.435Z,7.88
2023-04-18T04:23:20.016Z,7.98
2023-04-18T04:24:20.576Z,8.03
2023-04-18T04:25:21.132Z,7.94
2023-04-18T04:26:21.688Z,7.94
2023-04-18T04:27:22.228Z,8.00
2023-04-18T04:28:22.783Z,8.00
2023-04-18T04:29:23.339Z,8.00
2023-04-18T04:30:23.880Z,7.97
2023-04-18T04:31:24.489Z,7.94
2023-04-18T04:32:25.153Z,7.98
2023-04-18T04:33:25.227Z,8.06
2023-04-18T04:34:25.774Z,7.98
2023-04-18T04:35:26.341Z,7.95
2023-04-18T04:36:26.907Z,7.93
2023-04-18T04:37:27.477Z,7.91
2023-04-18T04:38:28.062Z,7.97
2023-04-18T04:39:28.627Z,8.03
2023-04-18T04:40:29.186Z,8.03
2023-04-18T04:41:29.769Z,8.05
2023-04-18T04:42:30.342Z,7.94
2023-04-18T04:43:30.931Z,8.03
2023-04-18T04:44:31.530Z,7.90
2023-04-18T04:45:32.161Z,8.01
2023-04-18T04:46:32.765Z,7.98
2023-04-18T04:47:33.375Z,7.94
2023-04-18T04:48:33.945Z,7.94
2023-04-18T04:49:34.508Z,8.01
2023-04-18T04:50:35.084Z,8.00
2023-04-18T04:51:35.651Z,7.98
2023-04-18T04:52:36.229Z,8.08
2023-04-18T04:53:36.836Z,8.01
2023-04-18T04:54:36.941Z,8.00
2023-04-18T04:55:37.535Z,8.05
2023-04-18T04:56:38.131Z,8.12
2023-04-18T04:57:38.724Z,8.16
2023-04-18T04:58:39.324Z,8.24
2023-04-18T04:59:39.908Z,8.12
2023-04-18T05:00:40.496Z,8.13
2023-04-18T05:01:41.129Z,8.19
2023-04-18T05:02:41.288Z,8.19
2023-04-18T05:03:41.476Z,8.15
2023-04-18T05:04:41.567Z,8.18
2023-04-18T05:05:42.173Z,8.12
2023-04-18T05:06:42.773Z,8.12
2023-04-18T05:07:43.353Z,8.03
2023-04-18T05:08:43.927Z,8.08
2023-04-18T05:09:44.523Z,8.15
2023-04-18T05:10:45.113Z,8.15
2023-04-18T05:11:45.696Z,8.15
2023-04-18T05:12:46.287Z,8.13
2023-04-18T05:13:46.870Z,8.23
2023-04-18T05:14:47.447Z,8.19
2023-04-18T05:15:48.047Z,8.18
2023-04-18T05:16:48.641Z,8.23
2023-04-18T05:17:49.284Z,8.24
2023-04-18T05:18:49.305Z,8.24
2023-04-18T05:19:49.913Z,8.18
2023-04-18T05:20:50.520Z,8.20
2023-04-18T05:21:51.144Z,8.24
2023-04-18T05:22:51.758Z,8.24
2023-04-18T05:23:52.352Z,8.18
2023-04-18T05:24:52.945Z,8.18
2023-04-18T05:25:53.525Z,8.24
2023-04-18T05:26:54.099Z,8.20
2023-04-18T05:27:54.716Z,8.27
2023-04-18T05:28:55.295Z,8.30
2023-04-18T05:29:55.905Z,8.36
2023-04-18T05:30:56.514Z,8.27
2023-04-18T05:31:57.151Z,8.23
2023-04-18T05:32:57.750Z,8.27
2023-04-18T05:33:58.346Z,8.30
2023-04-18T05:34:58.923Z,8.31
2023-04-18T05:35:59.546Z,8.33
2023-04-18T05:37:00.139Z,8.33
2023-04-18T05:38:00.271Z,8.28
2023-04-18T05:39:00.848Z,8.31
2023-04-18T05:40:01.433Z,8.27
2023-04-18T05:41:02.027Z,8.31
2023-04-18T05:42:02.649Z,8.34
2023-04-18T05:43:02.658Z,8.20
2023-04-18T05:44:05.753Z,8.24
2023-04-18T05:45:03.637Z,8.27
2023-04-18T05:46:04.207Z,8.27
2023-04-18T05:47:05.451Z,8.26
2023-04-18T05:48:04.921Z,8.31
2023-04-18T05:49:04.957Z,8.33
2023-04-18T05:50:05.524Z,8.27
2023-04-18T05:51:06.106Z,8.34
2023-04-18T05:52:06.697Z,8.34
2023-04-18T05:53:07.301Z,8.34
2023-04-18T05:54:07.895Z,8.19
2023-04-18T05:55:08.482Z,8.36
2023-04-18T05:56:09.067Z,8.42
2023-04-18T05:57:09.673Z,8.38
2023-04-18T05:58:10.280Z,8.42
2023-04-18T05:59:10.875Z,8.46
2023-04-18T06:00:11.462Z,8.48
2023-04-18T06:01:12.062Z,8.49
2023-04-18T06:02:12.847Z,8.48
2023-04-18T06:03:13.115Z,8.52
2023-04-18T06:04:13.404Z,8.52
2023-04-18T06:05:14.136Z,8.52
2023-04-18T06:06:14.257Z,8.60
2023-04-18T06:07:14.836Z,8.48
2023-04-18T06:08:15.416Z,8.52
2023-04-18T06:09:16.002Z,8.52
2023-04-18T06:10:16.616Z,8.55
2023-04-18T06:11:17.203Z,8.53
2023-04-18T06:12:17.763Z,8.55
2023-04-18T06:13:18.346Z,8.60
2023-04-18T06:14:18.928Z,8.53
2023-04-18T06:15:19.522Z,8.53
2023-04-18T06:16:20.120Z,8.61
2023-04-18T06:17:20.152Z,8.63
2023-04-18T06:18:20.820Z,8.64
2023-04-18T06:19:20.825Z,8.69
2023-04-18T06:20:21.423Z,8.74
2023-04-18T06:21:22.019Z,8.70
2023-04-18T06:22:22.606Z,8.70
2023-04-18T06:23:23.202Z,8.69
2023-04-18T06:24:23.802Z,8.78
2023-04-18T06:25:24.377Z,8.79
2023-04-18T06:26:24.954Z,8.78
2023-04-18T06:27:31.213Z,8.70
2023-04-18T06:28:25.790Z,8.73
2023-04-18T06:29:26.363Z,8.76
2023-04-18T06:30:26.926Z,8.69
2023-04-18T06:31:27.517Z,8.76
2023-04-18T06:32:28.163Z,8.74
2023-04-18T06:33:28.235Z,8.76
2023-04-18T06:34:28.844Z,8.82
2023-04-18T06:35:29.417Z,8.87
2023-04-18T06:36:29.978Z,8.79
2023-04-18T06:37:30.538Z,8.79
2023-04-18T06:38:31.096Z,8.84
2023-04-18T06:39:31.691Z,8.88
2023-04-18T06:40:32.262Z,8.87
2023-04-18T06:41:32.840Z,8.87
2023-04-18T06:42:33.405Z,8.95
2023-04-18T06:43:33.973Z,8.91
2023-04-18T06:44:34.556Z,8.89
2023-04-18T06:45:35.152Z,8.79
2023-04-18T06:46:35.760Z,8.84
2023-04-18T06:47:36.399Z,8.85
2023-04-18T06:48:36.401Z,8.85
2023-04-18T06:49:36.973Z,8.84
2023-04-18T06:50:37.535Z,8.82
2023-04-18T06:51:38.142Z,8.92
2023-04-18T06:52:38.137Z,8.95
2023-04-18T06:53:38.698Z,8.95
2023-04-18T06:54:39.281Z,9.03
2023-04-18T06:55:39.857Z,9.04
2023-04-18T06:56:40.418Z,9.00
2023-04-18T06:57:41.006Z,9.06
2023-04-18T06:58:41.628Z,9.04
2023-04-18T06:59:42.224Z,9.08
2023-04-18T07:00:42.874Z,8.94
2023-04-18T07:01:43.008Z,8.95
2023-04-18T07:02:43.135Z,8.97
2023-04-18T07:03:43.452Z,8.95
2023-04-18T07:04:43.662Z,9.02
2023-04-18T07:05:43.773Z,9.00
2023-04-18T07:06:44.328Z,9.03
2023-04-18T07:07:44.901Z,9.11
2023-04-18T07:08:45.481Z,8.99
2023-04-18T07:09:46.060Z,8.95
2023-04-18T07:10:46.634Z,9.08
2023-04-18T07:11:47.215Z,9.10
2023-04-18T07:12:47.781Z,9.11
2023-04-18T07:13:48.364Z,9.11
2023-04-18T07:14:48.913Z,9.03
2023-04-18T07:15:49.492Z,8.99
2023-04-18T07:16:50.119Z,9.16
2023-04-18T07:17:50.193Z,9.13
2023-04-18T07:18:50.180Z,9.14
2023-04-18T07:19:50.758Z,9.00
2023-04-18T07:20:51.348Z,8.97
2023-04-18T07:21:51.921Z,9.11
2023-04-18T07:22:52.495Z,9.10
2023-04-18T07:23:53.085Z,9.18
2023-04-18T07:24:53.653Z,9.22
2023-04-18T07:25:54.230Z,9.23
2023-04-18T07:26:55.284Z,9.23
2023-04-18T07:27:55.349Z,9.22
2023-04-18T07:28:55.910Z,9.32
2023-04-18T07:29:56.467Z,9.37
2023-04-18T07:30:57.120Z,9.29
2023-04-18T07:31:57.130Z,9.48
2023-04-18T07:32:57.729Z,9.68
2023-04-18T07:33:57.750Z,9.87
2023-04-18T07:34:58.315Z,9.76
2023-04-18T07:35:58.872Z,9.73
2023-04-18T07:36:59.447Z,9.66
2023-04-18T07:38:00.026Z,9.73
2023-04-18T07:39:00.613Z,9.65
2023-04-18T07:40:01.190Z,9.72
2023-04-18T07:41:01.756Z,9.51
2023-04-18T07:42:02.301Z,9.66
2023-04-18T07:43:02.866Z,9.64
2023-04-18T07:44:03.478Z,9.74
2023-04-18T07:45:04.006Z,9.83
2023-04-18T07:46:04.601Z,9.86
2023-04-18T07:47:04.645Z,9.94
2023-04-18T07:48:05.273Z,9.91
2023-04-18T07:49:05.278Z,9.92
2023-04-18T07:50:05.859Z,9.97
2023-04-18T07:51:06.423Z,9.95
2023-04-18T07:52:06.985Z,9.98
2023-04-18T07:53:07.553Z,10.01
2023-04-18T07:54:08.144Z,10.12
2023-04-18T07:55:08.730Z,10.09
2023-04-18T07:56:08.808Z,10.15
2023-04-18T07:57:08.832Z,10.09
2023-04-18T07:58:08.858Z,10.16
2023-04-18T07:59:08.852Z,10.22
2023-04-18T08:00:09.566Z,10.28
2023-04-18T08:01:09.566Z,10.34
2023-04-18T08:02:09.699Z,10.19
2023-04-18T08:03:09.889Z,10.31
2023-04-18T08:04:10.208Z,10.40
2023-04-18T08:05:10.534Z,10.37
2023-04-18T08:06:10.655Z,10.31
2023-04-18T08:07:11.254Z,10.44
2023-04-18T08:08:11.279Z,10.57
2023-04-18T08:09:11.397Z,10.61
2023-04-18T08:10:11.519Z,10.60
2023-04-18T08:11:11.530Z,10.57
2023-04-18T08:12:11.526Z,10.51
2023-04-18T08:13:11.557Z,10.60
2023-04-18T08:14:11.578Z,10.57
2023-04-18T08:15:11.585Z,10.57
2023-04-18T08:16:13.158Z,10.59
2023-04-18T08:17:12.517Z,10.56
2023-04-18T08:18:12.537Z,10.54
2023-04-18T08:19:12.949Z,10.57
2023-04-18T08:20:12.593Z,10.54
2023-04-18T08:21:13.180Z,10.48
2023-04-18T08:22:13.766Z,10.37
2023-04-18T08:23:14.379Z,10.42
2023-04-18T08:24:14.377Z,10.44
2023-04-18T08:25:14.957Z,10.28
2023-04-18T08:26:15.594Z,10.35
2023-04-18T08:27:15.629Z,10.26
2023-04-18T08:28:15.646Z,10.37
2023-04-18T08:29:15.726Z,10.31
2023-04-18T08:30:15.854Z,10.25
2023-04-18T08:31:16.525Z,10.22
2023-04-18T08:32:16.557Z,10.16
2023-04-18T08:33:17.574Z,10.26
2023-04-18T08:34:17.038Z,10.28
2023-04-18T08:35:17.652Z,10.34
2023-04-18T08:36:17.667Z,10.25
2023-04-18T08:37:17.714Z,10.23
2023-04-18T08:38:17.710Z,10.20
2023-04-18T08:39:18.316Z,10.30
2023-04-18T08:40:18.337Z,10.30
2023-04-18T08:41:18.345Z,10.30
2023-04-18T08:42:18.949Z,10.31
2023-04-18T08:43:18.953Z,10.34
2023-04-18T08:44:19.570Z,10.37
2023-04-18T08:45:19.594Z,10.37
2023-04-18T08:46:19.739Z,10.35
2023-04-18T08:47:19.807Z,10.42
2023-04-18T08:48:19.858Z,10.34
2023-04-18T08:49:19.880Z,10.35
2023-04-18T08:50:20.490Z,10.34
2023-04-18T08:51:20.522Z,10.38
2023-04-18T08:52:21.124Z,10.41
2023-04-18T08:53:21.146Z,10.41
2023-04-18T08:54:21.177Z,10.54
2023-04-18T08:55:21.221Z,10.53
2023-04-18T08:56:21.256Z,10.63
2023-04-18T08:57:21.276Z,10.63
2023-04-18T08:58:21.874Z,10.63
2023-04-18T08:59:22.480Z,10.63
2023-04-18T09:00:22.520Z,10.61
2023-04-18T09:01:22.579Z,10.69
2023-04-18T09:02:22.688Z,10.59
2023-04-18T09:03:22.841Z,10.71
2023-04-18T09:04:22.938Z,10.74
2023-04-18T09:05:23.024Z,10.78
2023-04-18T09:06:24.016Z,10.78
2023-04-18T09:07:24.174Z,10.89
2023-04-18T09:08:24.760Z,10.87
2023-04-18T09:09:25.363Z,10.94
2023-04-18T09:10:25.970Z,10.93
2023-04-18T09:11:26.172Z,11.02
2023-04-18T09:12:26.238Z,10.97
2023-04-18T09:13:26.275Z,10.94
2023-04-18T09:14:26.313Z,11.00
2023-04-18T09:15:26.330Z,11.15
2023-04-18T09:16:26.369Z,11.14
2023-04-18T09:17:26.461Z,11.27
2023-04-18T09:18:26.466Z,11.41
2023-04-18T09:19:27.053Z,11.37
2023-04-18T09:20:27.642Z,11.47
2023-04-18T09:21:27.651Z,11.54
2023-04-18T09:22:27.673Z,11.65
2023-04-18T09:23:27.658Z,11.72
2023-04-18T09:24:28.243Z,11.80
2023-04-18T09:25:28.250Z,11.80
2023-04-18T09:26:28.400Z,11.77
2023-04-18T09:27:28.423Z,11.77
2023-04-18T09:28:28.465Z,11.80
2023-04-18T09:29:28.485Z,11.80
2023-04-18T09:30:28.652Z,11.70
2023-04-18T09:31:28.712Z,11.77
2023-04-18T09:32:28.805Z,11.80
2023-04-18T09:33:28.816Z,11.80
2023-04-18T09:34:29.396Z,11.75
2023-04-18T09:35:29.389Z,11.83
2023-04-18T09:36:30.017Z,11.80
2023-04-18T09:37:30.050Z,11.88
2023-04-18T09:38:30.060Z,11.91
2023-04-18T09:39:30.631Z,11.99
2023-04-18T09:40:30.650Z,12.02
2023-04-18T09:41:30.630Z,12.04
2023-04-18T09:42:31.219Z,12.04
2023-04-18T09:43:31.209Z,12.09
2023-04-18T09:44:31.773Z,12.09
2023-04-18T09:45:32.344Z,12.04
2023-04-18T09:46:32.944Z,12.07
2023-04-18T09:47:32.997Z,11.90
2023-04-18T09:48:33.066Z,11.99
2023-04-18T09:49:33.096Z,12.03
2023-04-18T09:50:33.092Z,12.00
2023-04-18T09:51:33.078Z,11.88
2023-04-18T09:52:33.640Z,12.10
2023-04-18T09:53:33.636Z,12.15
2023-04-18T09:54:34.211Z,12.12
2023-04-18T09:55:34.779Z,12.15
2023-04-18T09:56:34.781Z,12.09
2023-04-18T09:57:34.783Z,12.15
2023-04-18T09:58:34.774Z,12.13
2023-04-18T09:59:34.773Z,12.13
2023-04-18T10:00:34.767Z,12.20
2023-04-18T10:01:34.859Z,12.22
2023-04-18T10:02:35.019Z,12.24
2023-04-18T10:03:35.269Z,12.28
2023-04-18T10:04:35.486Z,12.29
2023-04-18T10:05:35.721Z,12.28
2023-04-18T10:06:35.718Z,12.27
2023-04-18T10:07:36.287Z,12.40
2023-04-18T10:08:36.858Z,12.40
2023-04-18T10:09:36.839Z,12.53
2023-04-18T10:10:38.751Z,12.55
2023-04-18T10:11:37.326Z,12.58
2023-04-18T10:12:37.332Z,12.57
2023-04-18T10:13:37.315Z,12.60
2023-04-18T10:14:37.295Z,12.76
2023-04-18T10:15:37.357Z,12.90
2023-04-18T10:16:37.426Z,13.04
2023-04-18T10:17:37.451Z,13.18
2023-04-18T10:18:37.508Z,13.22
2023-04-18T10:19:37.520Z,13.19
2023-04-18T10:20:37.524Z,13.09
2023-04-18T10:21:37.523Z,13.03
2023-04-18T10:22:37.473Z,12.91
2023-04-18T10:23:38.017Z,12.82
2023-04-18T10:24:38.576Z,12.75
2023-04-18T10:25:38.537Z,12.65
2023-04-18T10:26:38.527Z,12.65
2023-04-18T10:27:38.510Z,12.62
2023-04-18T10:28:39.491Z,12.55
2023-04-18T10:29:38.906Z,12.55
2023-04-18T10:30:38.871Z,12.65
2023-04-18T10:31:39.528Z,12.87
2023-04-18T10:32:39.606Z,12.91
2023-04-18T10:33:41.994Z,12.91
2023-04-18T10:34:39.618Z,12.97
2023-04-18T10:35:41.393Z,12.90
2023-04-18T10:36:40.293Z,12.90
2023-04-18T10:37:40.890Z,12.94
2023-04-18T10:38:40.865Z,12.91
2023-04-18T10:39:40.828Z,12.91
2023-04-18T10:40:41.403Z,12.90
2023-04-18T10:41:41.381Z,12.94
2023-04-18T10:42:41.378Z,13.03
2023-04-18T10:43:41.365Z,13.09
2023-04-18T10:44:41.362Z,13.20
2023-04-18T10:45:41.345Z,13.18
2023-04-18T10:46:41.350Z,13.30
2023-04-18T10:47:41.441Z,13.44
2023-04-18T10:48:41.480Z,13.49
2023-04-18T10:49:41.433Z,13.49
2023-04-18T10:50:41.987Z,13.35
2023-04-18T10:51:41.958Z,13.52
2023-04-18T10:52:42.505Z,13.49
2023-04-18T10:53:43.037Z,13.50
2023-04-18T10:54:43.603Z,13.57
2023-04-18T10:55:43.578Z,13.67
2023-04-18T10:56:43.574Z,13.65
2023-04-18T10:57:43.547Z,13.54
2023-04-18T10:58:44.056Z,13.50
2023-04-18T10:59:44.596Z,13.41
2023-04-18T11:00:45.125Z,13.37
2023-04-18T11:01:45.116Z,13.30
2023-04-18T11:02:45.233Z,13.25
2023-04-18T11:03:45.353Z,13.13
2023-04-18T11:04:45.331Z,13.12
2023-04-18T11:05:45.872Z,13.15
2023-04-18T11:06:46.397Z,13.03
2023-04-18T11:07:46.368Z,13.00
2023-04-18T11:08:46.938Z,13.05
2023-04-18T11:09:46.887Z,13.11
2023-04-18T11:10:47.433Z,13.20
2023-04-18T11:11:47.951Z,13.46
2023-04-18T11:12:48.480Z,13.56
2023-04-18T11:13:49.004Z,13.75
2023-04-18T11:14:49.565Z,13.71
2023-04-18T11:15:50.111Z,13.67
2023-04-18T11:16:50.754Z,13.65
2023-04-18T11:17:50.718Z,13.67
2023-04-18T11:18:50.703Z,13.74
2023-04-18T11:19:51.239Z,13.74
2023-04-18T11:20:51.177Z,13.85
2023-04-18T11:21:51.708Z,13.92
2023-04-18T11:22:52.235Z,13.87
2023-04-18T11:23:52.840Z,13.86
2023-04-18T11:24:52.849Z,13.85
2023-04-18T11:25:53.372Z,13.90
2023-04-18T11:26:53.959Z,13.81
2023-04-18T11:27:53.887Z,13.68
2023-04-18T11:28:53.869Z,13.81
2023-04-18T11:29:54.414Z,13.72
2023-04-18T11:30:54.921Z,13.71
2023-04-18T11:31:58.310Z,13.70
2023-04-18T11:32:55.252Z,13.60
2023-04-18T11:33:55.294Z,13.53
2023-04-18T11:34:55.279Z,13.52
2023-04-18T11:35:55.796Z,13.52
2023-04-18T11:36:56.313Z,13.54
2023-04-18T11:37:56.850Z,13.60
2023-04-18T11:38:57.372Z,13.59
2023-04-18T11:39:57.866Z,13.54
2023-04-18T11:40:58.384Z,13.54
2023-04-18T11:41:58.852Z,13.60
2023-04-18T11:42:59.357Z,13.70
2023-04-18T11:43:59.885Z,13.71
2023-04-18T11:45:00.369Z,13.72
2023-04-18T11:46:00.874Z,13.70
2023-04-18T11:47:01.383Z,13.53
2023-04-18T11:48:01.947Z,13.42
2023-04-18T11:49:01.853Z,13.56
2023-04-18T11:50:02.299Z,13.46
2023-04-18T11:51:02.761Z,13.52
2023-04-18T11:52:03.236Z,13.60
2023-04-18T11:53:03.237Z,13.71
2023-04-18T11:54:03.736Z,13.87
2023-04-18T11:55:04.191Z,13.95
2023-04-18T11:56:04.625Z,14.05
2023-04-18T11:57:05.079Z,14.14
2023-04-18T11:58:05.510Z,14.17
2023-04-18T11:59:05.989Z,14.18
2023-04-18T12:00:06.419Z,14.04
2023-04-18T12:01:06.860Z,14.05
2023-04-18T12:02:16.267Z,13.97
2023-04-18T12:03:07.549Z,14.00
2023-04-18T12:04:08.037Z,13.95
2023-04-18T12:05:08.085Z,13.96
2023-04-18T12:06:07.779Z,13.97
2023-04-18T12:07:07.726Z,13.96
2023-04-18T12:08:08.182Z,13.93
2023-04-18T12:09:08.616Z,13.85
2023-04-18T12:10:09.082Z,13.83
2023-04-18T12:11:09.544Z,13.89
2023-04-18T12:12:10.012Z,13.87
2023-04-18T12:13:10.456Z,13.89
2023-04-18T12:14:10.901Z,13.89
2023-04-18T12:15:11.337Z,13.95
2023-04-18T12:16:11.812Z,14.00
2023-04-18T12:17:12.280Z,14.05
2023-04-18T12:18:12.739Z,14.07
2023-04-18T12:19:13.168Z,14.07
2023-04-18T12:20:13.616Z,14.07
2023-04-18T12:21:14.096Z,14.20
2023-04-18T12:22:14.527Z,14.50
2023-04-18T12:23:14.968Z,14.50
2023-04-18T12:24:15.620Z,14.58
2023-04-18T12:25:15.670Z,14.54
2023-04-18T12:26:16.100Z,14.36
2023-04-18T12:27:16.523Z,14.30
2023-04-18T12:28:16.954Z,14.29
2023-04-18T12:29:17.372Z,14.23
2023-04-18T12:30:17.805Z,14.32
2023-04-18T12:31:18.321Z,14.43
2023-04-18T12:32:18.168Z,14.41
2023-04-18T12:33:18.580Z,14.35
2023-04-18T12:34:19.010Z,14.50
2023-04-18T12:35:19.520Z,14.60
2023-04-18T12:36:20.017Z,14.66
2023-04-18T12:37:19.924Z,14.63
2023-04-18T12:38:20.378Z,14.66
2023-04-18T12:39:20.852Z,14.63
2023-04-18T12:40:21.258Z,14.66
2023-04-18T12:41:21.690Z,14.60
2023-04-18T12:42:22.115Z,14.54
2023-04-18T12:43:22.539Z,14.44
2023-04-18T12:44:22.965Z,14.41
2023-04-18T12:45:23.406Z,14.41
2023-04-18T12:46:24.004Z,14.41
2023-04-18T12:47:23.895Z,14.30
2023-04-18T12:48:23.813Z,14.32
2023-04-18T12:49:24.242Z,14.37
2023-04-18T12:50:24.797Z,14.33
2023-04-18T12:51:24.601Z,14.33
2023-04-18T12:52:25.058Z,14.53
2023-04-18T12:53:25.505Z,14.88
2023-04-18T12:54:25.947Z,14.94
2023-04-18T12:55:26.391Z,15.02
2023-04-18T12:56:26.845Z,15.07
2023-04-18T12:57:27.297Z,15.11
2023-04-18T12:58:27.721Z,15.31
2023-04-18T12:59:28.143Z,15.28
2023-04-18T13:00:28.551Z,15.19
2023-04-18T13:01:29.062Z,15.00
2023-04-18T13:02:29.220Z,15.00
2023-04-18T13:03:29.326Z,15.03
2023-04-18T13:04:29.576Z,15.14
2023-04-18T13:05:33.039Z,15.02
2023-04-18T13:06:30.078Z,14.97
2023-04-18T13:07:30.516Z,14.88
2023-04-18T13:08:30.944Z,14.78
2023-04-18T13:09:31.348Z,14.68
2023-04-18T13:10:31.763Z,14.60
2023-04-18T13:11:32.179Z,14.62
2023-04-18T13:12:32.584Z,14.62
2023-04-18T13:13:34.444Z,14.54
2023-04-18T13:14:33.216Z,14.44
2023-04-18T13:15:33.660Z,14.44
2023-04-18T13:16:34.131Z,14.48